Time;durP1;ratioP1;P1;durP2;ratioP2;P2;SDS_P1;SDS_P2;PMS_P1;PMS_P2;Temp;Humidity;BMP_temperature;BMP_pressure;BME280_temperature;BME280_humidity;BME280_pressure;Samples;Min_cycle;Max_cycle;Signal;HPM_P1;HPM_P2
2023/06/14 00:02:21;;;;;;;0.50;0.20;;;;;;;17.92;55.62;99826.00;5032818;28;20519;-51
2023/06/14 00:04:51;;;;;;;0.50;0.20;;;;;;;17.47;57.95;99829.84;5032679;28;20550;-51
2023/06/14 00:07:18;;;;;;;0.50;0.20;;;;;;;17.73;57.32;99823.69;5032910;28;20447;-51
2023/06/14 00:09:45;;;;;;;0.50;0.20;;;;;;;17.64;57.59;99821.56;5032509;28;20443;-51
2023/06/14 00:12:11;;;;;;;0.50;0.20;;;;;;;17.62;57.36;99828.00;5032294;28;20503;-51
2023/06/14 00:14:38;;;;;;;0.50;0.20;;;;;;;17.97;56.90;99828.41;5032234;28;20478;-51
2023/06/14 00:17:08;;;;;;;0.50;0.20;;;;;;;17.63;57.87;99833.28;5032535;28;20956;-51
2023/06/14 00:19:36;;;;;;;0.50;0.20;;;;;;;17.42;58.42;99834.69;5032409;28;20502;-51
2023/06/14 00:22:03;;;;;;;0.50;0.20;;;;;;;17.16;59.30;99829.13;5032408;28;20483;-51
2023/06/14 00:24:29;;;;;;;0.50;0.20;;;;;;;17.07;61.22;99828.84;5032187;28;20472;-51
2023/06/14 00:26:56;;;;;;;0.50;0.20;;;;;;;16.99;61.17;99829.31;5032336;28;20554;-51
2023/06/14 00:29:22;;;;;;;0.50;0.20;;;;;;;16.53;62.28;99831.25;5032565;28;20448;-51
2023/06/14 00:31:49;;;;;;;0.50;0.20;;;;;;;16.63;62.24;99836.94;5019039;28;20498;-51
2023/06/14 00:34:15;;;;;;;0.50;0.20;;;;;;;16.56;62.83;99831.06;5032255;28;20507;-51
2023/06/14 00:36:42;;;;;;;0.50;0.20;;;;;;;16.61;62.97;99828.97;5019243;28;20462;-51
2023/06/14 00:39:09;;;;;;;0.50;0.20;;;;;;;16.45;63.26;99825.50;5031962;28;20480;-51
2023/06/14 00:41:36;;;;;;;2.83;0.97;;;;;;;16.80;62.20;99828.72;5032164;28;20447;-51
2023/06/14 00:44:03;;;;;;;0.50;0.20;;;;;;;16.73;62.17;99827.41;5047930;23;20491;-50
2023/06/14 00:46:29;;;;;;;0.50;0.20;;;;;;;16.47;63.38;99827.13;5051593;28;20504;-49
2023/06/14 00:48:58;;;;;;;0.50;0.20;;;;;;;16.67;62.86;99834.00;5052095;28;20451;-49
2023/06/14 00:51:26;;;;;;;0.50;0.20;;;;;;;16.30;63.84;99832.63;5052098;28;20559;-49
2023/06/14 00:53:52;;;;;;;0.50;0.20;;;;;;;16.61;63.52;99828.97;5051313;28;20533;-49
2023/06/14 00:56:20;;;;;;;0.50;0.20;;;;;;;16.56;64.33;99834.59;5032058;28;20480;-49
2023/06/14 00:58:47;;;;;;;0.50;0.20;;;;;;;16.52;64.33;99837.56;5032153;28;20506;-49
2023/06/14 01:01:14;;;;;;;0.50;0.20;;;;;;;16.20;65.80;99834.13;5032068;28;20454;-49
2023/06/14 01:03:41;;;;;;;0.50;0.20;;;;;;;16.31;65.55;99839.75;5031944;28;20451;-49
2023/06/14 01:06:29;;;;;;;0.50;0.20;;;;;;;16.23;65.92;99836.63;5032201;28;20524;-49
2023/06/14 01:09:18;;;;;;;0.50;0.20;;;;;;;16.15;66.57;99844.25;5032065;28;20444;-50
2023/06/14 01:11:54;;;;;;;0.50;0.20;;;;;;;16.47;66.13;99850.41;5031941;28;20911;-49
2023/06/14 01:14:21;;;;;;;0.50;0.20;;;;;;;16.28;66.75;99848.81;5031850;28;20459;-49
2023/06/14 01:16:53;;;;;;;0.50;0.20;;;;;;;16.28;66.70;99858.66;5031759;28;20475;-49
2023/06/14 01:19:22;;;;;;;0.40;0.20;;;;;;;16.10;67.46;99851.72;5032289;28;20471;-49
2023/06/14 01:21:50;;;;;;;0.50;0.20;;;;;;;16.19;66.97;99844.00;5031874;28;20448;-49
2023/06/14 01:24:19;;;;;;;1.37;0.97;;;;;;;15.85;68.56;99852.25;5026314;28;20483;-49
2023/06/14 01:26:51;;;;;;;19.80;7.83;;;;;;;15.85;68.55;99863.84;5030396;28;20470;-49
2023/06/14 01:29:18;;;;;;;0.50;0.20;;;;;;;15.72;68.99;99852.09;5031958;28;20447;-49
2023/06/14 01:31:46;;;;;;;0.47;0.20;;;;;;;16.02;68.30;99854.81;5031816;28;20498;-49
2023/06/14 01:34:12;;;;;;;0.50;0.20;;;;;;;15.97;67.89;99854.25;5031900;28;20472;-49
2023/06/14 01:36:41;;;;;;;0.50;0.20;;;;;;;15.93;67.86;99852.69;5033476;28;20879;-49
2023/06/14 01:39:09;;;;;;;0.40;0.20;;;;;;;15.77;68.53;99854.53;5035231;28;20478;-49
2023/06/14 01:41:36;;;;;;;0.50;0.20;;;;;;;15.70;68.77;99854.00;5035334;28;20535;-49
2023/06/14 01:44:04;;;;;;;0.50;0.20;;;;;;;15.70;69.16;99856.69;5034844;28;20451;-49
2023/06/14 01:46:31;;;;;;;0.40;0.20;;;;;;;15.61;68.96;99858.03;5035515;28;20534;-49
2023/06/14 01:48:58;;;;;;;0.50;0.20;;;;;;;16.07;67.49;99855.44;5034963;28;20828;-51
2023/06/14 01:51:25;;;;;;;0.40;0.20;;;;;;;15.85;67.13;99861.16;5035228;28;20494;-49
2023/06/14 01:53:51;;;;;;;0.50;0.20;;;;;;;16.50;63.07;99851.09;5035179;28;20448;-49
2023/06/14 01:56:18;;;;;;;0.50;0.20;;;;;;;16.88;61.59;99847.94;5034902;28;20452;-49
2023/06/14 01:58:44;;;;;;;0.40;0.20;;;;;;;16.87;61.42;99855.13;5035141;28;20475;-50
2023/06/14 02:01:12;;;;;;;0.43;0.20;;;;;;;16.66;62.47;99864.44;5034941;28;20448;-49
2023/06/14 02:03:39;;;;;;;0.40;0.20;;;;;;;16.63;63.14;99855.72;5034731;28;20996;-49
2023/06/14 02:06:05;;;;;;;0.40;0.20;;;;;;;16.51;63.34;99852.81;5034727;28;20999;-49
2023/06/14 02:08:32;;;;;;;0.40;0.20;;;;;;;16.91;63.17;99857.59;5034732;28;20975;-49
2023/06/14 02:10:59;;;;;;;0.40;0.20;;;;;;;17.02;60.76;99858.69;5034511;28;20447;-50
2023/06/14 02:13:25;;;;;;;0.50;0.20;;;;;;;17.25;60.77;99853.66;5034906;28;20879;-49
2023/06/14 02:15:54;;;;;;;0.40;0.20;;;;;;;17.33;60.39;99852.25;5034783;28;20549;-49
2023/06/14 02:18:21;;;;;;;0.40;0.20;;;;;;;17.56;59.30;99861.53;5034491;28;20793;-49
2023/06/14 02:20:47;;;;;;;0.40;0.20;;;;;;;17.43;59.45;99857.91;5034700;28;20483;-49
2023/06/14 02:23:14;;;;;;;0.40;0.20;;;;;;;17.75;56.70;99859.41;5034565;28;20452;-49
2023/06/14 02:25:42;;;;;;;0.40;0.20;;;;;;;17.72;56.62;99864.97;5034415;28;20503;-49
2023/06/14 02:28:09;;;;;;;0.40;0.20;;;;;;;17.10;60.44;99861.72;5034408;28;20535;-49
2023/06/14 02:30:36;;;;;;;0.40;0.20;;;;;;;16.70;63.05;99871.38;5034449;28;20451;-49
2023/06/14 02:33:02;;;;;;;0.50;0.20;;;;;;;16.67;63.73;99863.50;5034495;28;20526;-49
2023/06/14 02:35:30;;;;;;;0.40;0.20;;;;;;;16.53;64.46;99874.19;5034350;28;20475;-49
2023/06/14 02:37:56;;;;;;;0.50;0.20;;;;;;;16.50;65.59;99872.53;5034197;28;20928;-49
2023/06/14 02:40:23;;;;;;;0.40;0.20;;;;;;;16.02;67.91;99878.94;5016771;28;20514;-49
2023/06/14 02:42:50;;;;;;;0.40;0.20;;;;;;;16.29;67.05;99871.97;5034367;28;20443;-49
2023/06/14 02:45:17;;;;;;;0.50;0.20;;;;;;;15.97;68.45;99875.69;5034159;28;20511;-49
2023/06/14 02:47:43;;;;;;;0.40;0.20;;;;;;;15.74;69.38;99871.63;5032997;28;20513;-49
2023/06/14 02:50:10;;;;;;;0.40;0.20;;;;;;;15.55;70.10;99870.91;5034185;28;20487;-49
2023/06/14 02:52:36;;;;;;;0.43;0.20;;;;;;;15.62;70.31;99878.56;5033806;28;20533;-47
2023/06/14 02:55:03;;;;;;;0.40;0.20;;;;;;;15.45;71.19;99869.69;5034170;28;20494;-47
2023/06/14 02:57:32;;;;;;;0.50;0.20;;;;;;;15.36;72.17;99877.28;5034146;28;20454;-47
2023/06/14 02:59:59;;;;;;;0.50;0.20;;;;;;;15.21;72.39;99879.91;5034221;28;21003;-47
2023/06/14 03:02:25;;;;;;;0.40;0.20;;;;;;;15.19;72.77;99877.31;5033775;28;20443;-47
2023/06/14 03:04:52;;;;;;;0.50;0.20;;;;;;;15.06;73.06;99879.78;5033767;28;20586;-48
2023/06/14 03:07:19;;;;;;;0.40;0.20;;;;;;;14.93;73.45;99891.22;5033560;28;20483;-47
2023/06/14 03:09:46;;;;;;;0.40;0.20;;;;;;;14.73;73.85;99890.47;5033855;28;20447;-47
2023/06/14 03:12:13;;;;;;;0.50;0.20;;;;;;;14.60;74.51;99893.88;5033837;28;20526;-47
2023/06/14 03:14:40;;;;;;;0.40;0.20;;;;;;;14.52;75.28;99894.25;5033607;28;20630;-47
2023/06/14 03:17:08;;;;;;;0.40;0.20;;;;;;;14.31;76.00;99889.97;5033661;28;20452;-48
2023/06/14 03:19:34;;;;;;;0.40;0.20;;;;;;;14.28;75.94;99901.69;5033544;28;20941;-49
2023/06/14 03:22:02;;;;;;;0.50;0.40;;;;;;;14.22;76.21;99897.50;5020393;28;20456;-47
2023/06/14 03:24:28;;;;;;;0.40;0.20;;;;;;;14.35;76.48;99902.25;5033110;28;20467;-48
2023/06/14 03:26:56;;;;;;;0.40;0.20;;;;;;;14.12;76.42;99904.28;5033466;28;20452;-47
2023/06/14 03:29:23;;;;;;;0.40;0.20;;;;;;;14.18;76.83;99903.94;5033348;28;20463;-47
2023/06/14 03:32:01;;;;;;;0.40;0.20;;;;;;;14.22;76.50;99905.53;5033215;28;20494;-47
2023/06/14 03:34:27;;;;;;;0.40;0.20;;;;;;;14.19;77.26;99904.81;5032974;28;20475;-49
2023/06/14 03:36:54;;;;;;;0.40;0.20;;;;;;;14.52;75.83;99902.28;5033313;28;20452;-47
2023/06/14 03:39:21;;;;;;;0.40;0.20;;;;;;;14.15;77.09;99911.25;5032951;28;20487;-48
2023/06/14 03:41:47;;;;;;;0.40;0.20;;;;;;;14.10;77.44;99911.47;5032997;28;20949;-47
2023/06/14 03:44:18;;;;;;;0.40;0.20;;;;;;;14.06;77.11;99909.91;5032758;28;20950;-47
2023/06/14 03:46:46;;;;;;;0.40;0.20;;;;;;;13.98;77.92;99919.22;5032993;28;20448;-47
2023/06/14 03:49:13;;;;;;;0.40;0.20;;;;;;;14.09;77.42;99922.25;5032763;28;20443;-48
2023/06/14 03:51:40;;;;;;;0.40;0.20;;;;;;;13.74;79.08;99921.28;5032881;28;20518;-47
2023/06/14 03:54:07;;;;;;;0.40;0.20;;;;;;;13.91;78.95;99922.19;5032880;28;20456;-47
2023/06/14 03:56:53;;;;;;;0.40;0.20;;;;;;;13.93;78.84;99923.00;5032724;28;20448;-47
2023/06/14 03:59:21;;;;;;;0.40;0.20;;;;;;;14.73;74.74;99921.72;5032010;28;20456;-48
2023/06/14 04:01:47;;;;;;;0.40;0.20;;;;;;;14.02;78.41;99926.16;5015332;28;20574;-48
2023/06/14 04:04:16;;;;;;;0.40;0.20;;;;;;;14.09;78.25;99936.47;5032626;28;20475;-47
2023/06/14 04:06:42;;;;;;;0.40;0.20;;;;;;;14.14;79.42;99934.47;5032624;28;20458;-47
2023/06/14 04:09:09;;;;;;;0.40;0.20;;;;;;;14.72;77.56;99934.25;5032530;28;20871;-47
2023/06/14 04:11:35;;;;;;;0.40;0.20;;;;;;;14.50;77.58;99929.09;5032357;28;20452;-48
2023/06/14 04:14:02;;;;;;;0.40;0.20;;;;;;;14.48;78.08;99933.66;5032342;28;20490;-47
2023/06/14 04:16:29;;;;;;;0.40;0.20;;;;;;;14.29;79.45;99935.50;5032538;28;20448;-47
2023/06/14 04:18:57;;;;;;;0.40;0.20;;;;;;;14.45;79.17;99938.31;5032532;28;20459;-48
2023/06/14 04:21:25;;;;;;;0.40;0.20;;;;;;;14.47;79.57;99941.78;5032177;28;20490;-48
2023/06/14 04:23:52;;;;;;;0.40;0.20;;;;;;;14.90;78.22;99943.13;5032174;28;20483;-48
2023/06/14 04:26:20;;;;;;;0.40;0.20;;;;;;;14.87;78.56;99951.31;5031948;28;20455;-47
2023/06/14 04:28:53;;;;;;;0.40;0.20;;;;;;;15.36;76.47;99948.75;5032193;28;20448;-47
2023/06/14 04:31:21;;;;;;;0.40;0.20;;;;;;;15.97;74.08;99956.97;5032021;28;20479;-48
2023/06/14 04:33:50;;;;;;;0.40;0.20;;;;;;;16.61;70.62;99957.78;5032195;28;20499;-47
2023/06/14 04:36:17;;;;;;;0.40;0.20;;;;;;;17.37;68.02;99950.50;5032107;28;20502;-48
2023/06/14 04:38:48;;;;;;;0.40;0.20;;;;;;;17.83;65.52;99950.34;5032122;28;20462;-47
2023/06/14 04:41:15;;;;;;;0.40;0.20;;;;;;;18.32;63.04;99956.06;5031877;28;20518;-47
2023/06/14 04:43:42;;;;;;;0.40;0.20;;;;;;;18.13;64.32;99957.38;5032299;28;20444;-47
2023/06/14 04:46:10;;;;;;;0.40;0.20;;;;;;;18.43;62.59;99959.88;5031610;28;21034;-47
2023/06/14 04:48:42;;;;;;;0.40;0.20;;;;;;;18.92;60.10;99957.50;5032027;28;20451;-48
2023/06/14 04:51:09;;;;;;;0.40;0.20;;;;;;;19.51;58.44;99963.22;5031924;28;20447;-47
2023/06/14 04:53:35;;;;;;;0.50;0.20;;;;;;;19.48;58.65;99971.56;5031605;28;20494;-47
2023/06/14 04:56:03;;;;;;;0.40;0.20;;;;;;;20.11;55.58;99962.50;5032012;28;20467;-48
2023/06/14 04:58:30;;;;;;;0.50;0.20;;;;;;;19.92;56.30;99967.53;5031865;28;20455;-47
2023/06/14 05:00:58;;;;;;;0.40;0.20;;;;;;;20.08;55.80;99977.09;5031982;28;20456;-47
2023/06/14 05:03:26;;;;;;;0.50;0.20;;;;;;;20.32;54.69;99978.97;5031824;28;20534;-47
2023/06/14 05:05:53;;;;;;;0.50;0.20;;;;;;;20.28;55.36;99980.16;5031703;28;20496;-48
2023/06/14 05:08:23;;;;;;;0.50;0.20;;;;;;;20.77;53.85;99977.41;5031655;28;20791;-48
2023/06/14 05:10:50;;;;;;;0.50;0.20;;;;;;;20.66;54.37;99974.63;5032515;28;20944;-47
2023/06/14 05:13:17;;;;;;;0.50;0.20;;;;;;;21.03;53.00;99974.56;5035742;28;21004;-48
2023/06/14 05:15:44;;;;;;;0.50;0.20;;;;;;;20.94;53.24;99981.50;5035488;28;20995;-47
2023/06/14 05:18:10;;;;;;;0.70;0.70;;;;;;;21.42;50.57;99985.00;5035726;28;20455;-48
2023/06/14 05:20:37;;;;;;;0.50;0.20;;;;;;;21.53;51.97;99979.63;5035635;28;20448;-47
2023/06/14 05:23:03;;;;;;;0.50;0.20;;;;;;;21.89;48.97;99978.50;5035591;28;20447;-48
2023/06/14 05:25:30;;;;;;;0.50;0.20;;;;;;;22.13;47.92;99977.53;5035633;28;20471;-49
2023/06/14 05:27:57;;;;;;;0.50;0.20;;;;;;;22.75;46.99;99980.47;5035633;28;20549;-48
2023/06/14 05:30:23;;;;;;;0.40;0.20;;;;;;;22.71;46.38;99984.41;5035305;28;21040;-48
2023/06/14 05:32:50;;;;;;;0.50;0.20;;;;;;;22.53;46.69;99980.53;5035242;28;20483;-47
2023/06/14 05:35:16;;;;;;;0.50;0.20;;;;;;;23.22;45.94;99982.88;5035190;28;20474;-48
2023/06/14 05:37:43;;;;;;;0.50;0.20;;;;;;;22.76;46.18;99992.19;5035526;28;20458;-48
2023/06/14 05:40:10;;;;;;;0.50;0.20;;;;;;;23.19;45.87;99997.56;5035549;28;20702;-47
2023/06/14 05:42:37;;;;;;;0.50;0.20;;;;;;;22.93;46.33;99998.91;5035364;28;21638;-48
2023/06/14 05:45:04;;;;;;;0.50;0.20;;;;;;;23.58;44.87;100001.44;5034973;28;20483;-48
2023/06/14 05:47:31;;;;;;;0.60;0.50;;;;;;;22.89;46.54;100003.75;5034989;28;20891;-49
2023/06/14 05:49:57;;;;;;;0.50;0.20;;;;;;;23.37;45.65;100005.97;5035025;28;20455;-47
2023/06/14 05:52:25;;;;;;;0.60;0.60;;;;;;;23.44;45.19;100004.44;5035059;28;20574;-48
2023/06/14 05:54:51;;;;;;;0.50;0.20;;;;;;;23.35;45.22;99999.81;5034842;28;20472;-49
2023/06/14 05:57:18;;;;;;;0.50;0.20;;;;;;;23.47;46.16;100009.59;5034961;28;20452;-48
2023/06/14 05:59:44;;;;;;;0.50;0.20;;;;;;;23.60;44.97;100006.72;5034935;28;20455;-50
2023/06/14 06:02:11;;;;;;;0.50;0.20;;;;;;;23.59;45.10;100000.44;5034666;28;20542;-47
2023/06/14 06:04:37;;;;;;;0.67;0.67;;;;;;;23.14;45.37;100001.63;5034853;28;20482;-47
2023/06/14 06:07:05;;;;;;;0.50;0.20;;;;;;;23.38;45.63;100013.09;5034909;28;20451;-48
2023/06/14 06:09:32;;;;;;;0.50;0.20;;;;;;;23.48;44.91;100000.47;5034578;28;20538;-48
2023/06/14 06:11:58;;;;;;;0.50;0.20;;;;;;;23.34;46.92;100004.38;5034375;28;20963;-51
2023/06/14 06:14:25;;;;;;;0.50;0.20;;;;;;;23.45;46.29;99997.16;5034609;28;20474;-47
2023/06/14 06:16:52;;;;;;;0.53;0.40;;;;;;;23.23;44.56;100012.56;5034387;28;20447;-48
2023/06/14 06:19:19;;;;;;;0.50;0.20;;;;;;;23.49;45.39;100017.59;5034772;28;20448;-48
2023/06/14 06:21:45;;;;;;;0.50;0.20;;;;;;;23.46;41.83;100013.31;5034263;28;20451;-48
2023/06/14 06:24:12;;;;;;;0.50;0.20;;;;;;;23.43;42.68;100020.84;5034499;28;20464;-48
2023/06/14 06:26:39;;;;;;;0.50;0.20;;;;;;;22.87;43.61;100019.25;5034334;28;20452;-47
2023/06/14 06:29:06;;;;;;;0.50;0.20;;;;;;;23.02;43.46;100022.53;5034536;28;20452;-48
2023/06/14 06:31:32;;;;;;;0.50;0.20;;;;;;;23.41;43.87;100010.13;5034174;28;20455;-48
2023/06/14 06:33:59;;;;;;;0.50;0.20;;;;;;;24.21;41.76;100013.00;5034302;28;21004;-48
2023/06/14 06:36:26;;;;;;;0.50;0.20;;;;;;;23.56;41.93;100024.19;5034946;28;20817;-47
2023/06/14 06:38:52;;;;;;;0.50;0.30;;;;;;;22.50;42.83;100018.72;5034016;28;20824;-48
2023/06/14 06:41:18;;;;;;;0.50;0.20;;;;;;;22.55;43.35;100027.34;5034116;28;20459;-47
2023/06/14 06:43:45;;;;;;;0.50;0.20;;;;;;;22.74;42.23;100027.50;5034105;28;20994;-48
2023/06/14 06:46:12;;;;;;;0.50;0.20;;;;;;;22.93;42.63;100031.44;5034315;28;21015;-49
2023/06/14 06:48:39;;;;;;;0.50;0.20;;;;;;;22.60;43.31;100032.34;5034360;28;20455;-49
2023/06/14 06:51:05;;;;;;;0.50;0.30;;;;;;;22.87;42.79;100038.22;5034188;28;20569;-49
2023/06/14 06:53:32;;;;;;;0.50;0.20;;;;;;;22.33;43.47;100036.34;5034295;28;20538;-49
2023/06/14 06:56:08;;;;;;;0.50;0.30;;;;;;;22.15;44.51;100033.28;5021027;28;20464;-49
2023/06/14 06:58:34;;;;;;;0.73;0.73;;;;;;;21.89;44.69;100032.63;5033765;28;21030;-49
2023/06/14 07:01:01;;;;;;;0.50;0.20;;;;;;;21.90;44.22;100038.91;5033825;28;20539;-48
2023/06/14 07:03:27;;;;;;;0.50;0.20;;;;;;;22.02;43.95;100054.19;5034056;28;20543;-49
2023/06/14 07:05:54;;;;;;;0.50;0.20;;;;;;;21.97;44.53;100048.28;5033843;28;20517;-49
2023/06/14 07:08:20;;;;;;;0.50;0.20;;;;;;;21.50;45.01;100052.88;5033697;28;20551;-49
2023/06/14 07:10:46;;;;;;;0.50;0.20;;;;;;;21.80;45.30;100051.47;5033739;28;20542;-49
2023/06/14 07:13:13;;;;;;;0.50;0.30;;;;;;;22.06;45.08;100052.97;5033814;28;20577;-49
2023/06/14 07:15:40;;;;;;;0.50;0.20;;;;;;;22.03;44.50;100046.91;5033723;28;20575;-49
2023/06/14 07:18:08;;;;;;;0.50;0.20;;;;;;;21.97;45.56;100056.41;5033609;28;20454;-49
2023/06/14 07:20:34;;;;;;;0.50;0.20;;;;;;;21.79;45.18;100060.53;5033779;28;20452;-49
2023/06/14 07:23:00;;;;;;;0.50;0.20;;;;;;;21.90;45.56;100052.44;5033730;28;20443;-49
2023/06/14 07:25:27;;;;;;;0.50;0.20;;;;;;;21.99;44.85;100053.56;5033222;28;20474;-49
2023/06/14 07:27:53;;;;;;;0.50;0.20;;;;;;;22.16;45.16;100063.94;5033529;28;20514;-49
2023/06/14 07:30:20;;;;;;;0.50;0.20;;;;;;;22.16;44.87;100053.97;5033598;28;21036;-49
2023/06/14 07:32:47;;;;;;;0.40;0.20;;;;;;;22.03;45.71;100061.31;5033478;28;20556;-49
2023/06/14 07:35:13;;;;;;;0.50;0.20;;;;;;;22.24;45.81;100069.63;5032691;28;20525;-49
2023/06/14 07:37:40;;;;;;;0.50;0.20;;;;;;;22.49;45.13;100064.91;5033495;28;20452;-49
2023/06/14 07:40:07;;;;;;;0.50;0.20;;;;;;;22.68;44.15;100065.97;5033874;28;20945;-49
2023/06/14 07:42:35;;;;;;;0.50;0.20;;;;;;;22.66;43.29;100077.94;5032951;28;20944;-49
2023/06/14 07:45:06;;;;;;;0.50;0.20;;;;;;;22.25;44.48;100068.63;5033018;28;21003;-49
2023/06/14 07:47:33;;;;;;;0.43;0.20;;;;;;;22.60;44.69;100065.75;5033107;28;20530;-49
2023/06/14 07:49:59;;;;;;;0.50;0.20;;;;;;;22.34;43.13;100067.00;5033155;28;20535;-49
2023/06/14 07:52:26;;;;;;;0.50;0.20;;;;;;;22.36;43.82;100074.03;5032908;28;20447;-49
2023/06/14 07:54:52;;;;;;;0.50;0.20;;;;;;;22.58;43.64;100081.25;5032705;28;20894;-49
2023/06/14 07:57:20;;;;;;;0.50;0.20;;;;;;;22.15;43.45;100070.34;5033176;28;20855;-49
2023/06/14 07:59:46;;;;;;;0.50;0.20;;;;;;;22.05;44.43;100078.31;5033099;28;20530;-49
2023/06/14 08:02:13;;;;;;;0.57;0.57;;;;;;;22.63;44.70;100070.94;5032791;28;20487;-49
2023/06/14 08:04:40;;;;;;;0.50;0.20;;;;;;;22.68;44.12;100070.53;5032690;28;20472;-49
2023/06/14 08:07:06;;;;;;;0.50;0.20;;;;;;;22.31;43.94;100073.53;5033105;28;20863;-49
2023/06/14 08:09:33;;;;;;;0.43;0.20;;;;;;;22.17;44.28;100082.75;5032719;28;20451;-49
2023/06/14 08:12:00;;;;;;;0.50;0.20;;;;;;;22.23;43.93;100081.44;5032750;28;20475;-49
2023/06/14 08:14:26;;;;;;;0.40;0.20;;;;;;;22.09;43.30;100074.41;5032821;28;20566;-49
2023/06/14 08:16:53;;;;;;;0.50;0.20;;;;;;;22.09;43.16;100076.25;5032768;28;20451;-49
2023/06/14 08:19:20;;;;;;;0.50;0.20;;;;;;;22.25;43.75;100073.19;5032519;28;20940;-49
2023/06/14 08:21:47;;;;;;;0.43;0.20;;;;;;;22.56;43.60;100075.13;5032328;28;21014;-49
2023/06/14 08:24:13;;;;;;;0.40;0.20;;;;;;;22.50;43.52;100077.47;5032378;28;20550;-49
2023/06/14 08:26:40;;;;;;;0.40;0.20;;;;;;;22.77;43.67;100070.66;5032276;28;20452;-49
2023/06/14 08:29:07;;;;;;;0.40;0.20;;;;;;;23.21;43.03;100068.81;5032387;28;20483;-49
2023/06/14 08:31:34;;;;;;;0.50;0.20;;;;;;;23.09;42.39;100069.84;5032470;28;20460;-49
2023/06/14 08:34:01;;;;;;;0.40;0.20;;;;;;;22.92;43.01;100073.09;5032291;28;20484;-49
2023/06/14 08:36:31;;;;;;;0.50;0.30;;;;;;;22.80;42.81;100065.97;5032176;28;20443;-49
2023/06/14 08:38:58;;;;;;;0.50;0.20;;;;;;;22.81;42.56;100075.81;5032038;28;20878;-49
2023/06/14 08:41:24;;;;;;;0.40;0.20;;;;;;;22.85;42.44;100080.00;5032357;28;20490;-49
2023/06/14 08:43:52;;;;;;;0.50;0.20;;;;;;;23.02;41.19;100079.47;5032456;28;20452;-49
2023/06/14 08:46:19;;;;;;;1.57;1.47;;;;;;;23.09;42.43;100075.25;5017889;28;20534;-49
2023/06/14 08:48:49;;;;;;;0.50;0.20;;;;;;;22.95;42.00;100073.69;5036589;28;20506;-49
2023/06/14 08:51:19;;;;;;;0.50;0.20;;;;;;;22.91;41.87;100068.69;5036382;28;20475;-49
2023/06/14 08:53:50;;;;;;;0.47;0.20;;;;;;;23.06;41.69;100072.81;5036321;28;20537;-49
2023/06/14 08:56:17;;;;;;;0.47;0.20;;;;;;;23.31;40.90;100087.88;5036342;28;20518;-49
2023/06/14 08:58:47;;;;;;;0.40;0.20;;;;;;;23.04;40.51;100096.50;5036207;28;20551;-49
2023/06/14 09:01:16;;;;;;;0.40;0.20;;;;;;;23.19;40.76;100086.19;5036175;28;20502;-49
2023/06/14 09:03:44;;;;;;;0.50;0.20;;;;;;;23.20;40.02;100079.78;5035994;28;20527;-49
2023/06/14 09:06:13;;;;;;;0.40;0.20;;;;;;;23.49;39.61;100071.88;5036190;28;20879;-50
2023/06/14 09:08:43;;;;;;;0.60;0.20;;;;;;;23.12;41.31;100091.25;5036175;28;20455;-50
2023/06/14 09:11:12;;;;;;;0.43;0.20;;;;;;;23.19;41.11;100075.34;5036042;28;20451;-49
2023/06/14 09:13:39;;;;;;;0.40;0.20;;;;;;;23.67;39.22;100075.75;5036098;28;20491;-50
2023/06/14 09:16:06;;;;;;;0.50;0.20;;;;;;;23.22;38.48;100073.25;5035691;28;20980;-49
2023/06/14 09:18:40;;;;;;;0.50;0.20;;;;;;;23.44;37.49;100083.13;5035901;28;20455;-49
2023/06/14 09:21:08;;;;;;;0.50;0.20;;;;;;;23.52;37.99;100086.03;5036252;28;20446;-49
2023/06/14 09:23:39;;;;;;;0.47;0.20;;;;;;;23.16;38.70;100079.16;5035719;28;20494;-49
2023/06/14 09:26:10;;;;;;;0.50;0.20;;;;;;;23.39;38.58;100089.94;5035618;28;20467;-49
2023/06/14 09:28:47;;;;;;;0.50;0.20;;;;;;;23.45;39.06;100081.28;5035570;28;20482;-49
2023/06/14 09:31:17;;;;;;;0.50;0.20;;;;;;;23.07;40.47;100079.09;5035725;28;20447;-49
2023/06/14 09:33:48;;;;;;;0.50;0.20;;;;;;;23.30;39.75;100089.72;5035610;28;20495;-49
2023/06/14 09:36:23;;;;;;;0.50;0.20;;;;;;;23.28;39.31;100091.69;5035356;28;22148;-50
2023/06/14 09:39:04;;;;;;;0.50;0.20;;;;;;;23.79;38.89;100090.97;5035430;28;20607;-49
2023/06/14 09:41:39;;;;;;;0.40;0.20;;;;;;;23.45;39.57;100094.84;5035768;28;20474;-49
2023/06/14 09:44:07;;;;;;;0.50;0.20;;;;;;;23.53;38.84;100092.31;5035349;28;20455;-50
2023/06/14 09:46:42;;;;;;;0.50;0.20;;;;;;;23.55;39.86;100085.75;5035590;28;20889;-49
2023/06/14 09:49:08;;;;;;;0.50;0.20;;;;;;;23.45;39.66;100090.28;5035248;28;20455;-49
2023/06/14 09:51:45;;;;;;;0.40;0.20;;;;;;;23.91;38.86;100087.19;5035315;28;20443;-49
2023/06/14 09:54:22;;;;;;;0.50;0.20;;;;;;;23.79;40.29;100084.69;5035174;28;20498;-49
2023/06/14 09:56:51;;;;;;;0.40;0.20;;;;;;;23.34;40.18;100109.31;5034759;28;20452;-49
2023/06/14 09:59:29;;;;;;;0.50;0.20;;;;;;;23.23;39.55;100084.94;5035280;28;20453;-50
2023/06/14 10:01:59;;;;;;;0.40;0.20;;;;;;;23.89;39.24;100094.63;5034848;28;20538;-50
2023/06/14 10:04:29;;;;;;;0.50;0.30;;;;;;;23.96;39.70;100105.78;5035100;28;20538;-49
2023/06/14 10:06:57;;;;;;;0.47;0.20;;;;;;;23.71;40.74;100084.47;5035159;28;20456;-49
2023/06/14 10:09:24;;;;;;;0.50;0.20;;;;;;;24.01;40.42;100086.41;5035081;28;20459;-50
2023/06/14 10:11:50;;;;;;;0.50;0.20;;;;;;;24.39;38.98;100081.16;5034941;28;20483;-50
2023/06/14 10:14:18;;;;;;;0.50;0.20;;;;;;;24.64;40.26;100078.94;5034555;28;20526;-49
2023/06/14 10:17:16;;;;;;;0.50;0.20;;;;;;;24.67;39.17;100076.84;5034776;28;20451;-50
2023/06/14 10:20:23;;;;;;;0.50;0.20;;;;;;;23.85;39.14;100086.88;5034975;28;20439;-49
2023/06/14 10:22:58;;;;;;;0.50;0.30;;;;;;;23.76;40.44;100077.66;5033114;28;20501;-49
2023/06/14 10:25:29;;;;;;;0.50;0.20;;;;;;;24.01;39.96;100084.53;5034717;28;20517;-49
2023/06/14 10:28:03;;;;;;;0.50;0.20;;;;;;;23.90;39.08;100084.63;5034582;28;20823;-50
2023/06/14 10:30:30;;;;;;;0.50;0.20;;;;;;;24.23;39.38;100080.75;5034588;28;20483;-49
2023/06/14 10:33:05;;;;;;;0.50;0.20;;;;;;;24.07;38.96;100089.41;5034406;28;20448;-50
2023/06/14 10:35:31;;;;;;;0.50;0.20;;;;;;;24.14;39.71;100089.75;5034312;28;20495;-50
2023/06/14 10:38:12;;;;;;;0.50;0.20;;;;;;;24.39;39.72;100078.44;5034245;28;20510;-49
2023/06/14 10:40:39;;;;;;;0.50;0.20;;;;;;;24.28;39.76;100078.53;5034224;28;20945;-49
2023/06/14 10:43:23;;;;;;;0.40;0.20;;;;;;;24.18;40.31;100092.06;5034326;28;20452;-49
2023/06/14 10:46:18;;;;;;;0.50;0.20;;;;;;;24.61;39.91;100082.81;5034032;28;20511;-49
2023/06/14 10:48:45;;;;;;;0.47;0.20;;;;;;;23.90;39.56;100076.47;5034380;28;20444;-49
2023/06/14 10:51:21;;;;;;;0.50;0.20;;;;;;;24.29;39.74;100087.53;5034026;28;20979;-49
2023/06/14 10:53:49;;;;;;;0.50;0.20;;;;;;;24.34;39.87;100077.13;5033925;28;20494;-50
2023/06/14 10:56:31;;;;;;;0.50;0.20;;;;;;;24.56;39.27;100095.97;5034175;28;20455;-49
2023/06/14 10:58:57;;;;;;;0.50;0.20;;;;;;;24.03;39.73;100092.53;5034172;28;20458;-49
2023/06/14 11:01:40;;;;;;;0.50;0.20;;;;;;;24.11;39.54;100093.56;5033995;28;20448;-49
2023/06/14 11:04:11;;;;;;;0.50;0.20;;;;;;;24.20;39.81;100092.78;5033819;28;20523;-50
2023/06/14 11:06:46;;;;;;;0.50;0.20;;;;;;;24.56;38.25;100084.22;5033992;28;20458;-50
2023/06/14 11:09:54;;;;;;;0.40;0.20;;;;;;;24.24;39.04;100090.63;5032842;28;20537;-49
2023/06/14 11:12:21;;;;;;;0.50;0.20;;;;;;;24.68;38.46;100089.41;4993804;28;20487;-50
2023/06/14 11:14:48;;;;;;;0.50;0.20;;;;;;;24.35;39.24;100085.16;5033347;28;20856;-49
2023/06/14 11:17:15;;;;;;;0.50;0.20;;;;;;;24.67;39.17;100090.44;5033859;28;20448;-50
2023/06/14 11:19:41;;;;;;;0.50;0.20;;;;;;;24.67;37.99;100084.09;5033645;28;20535;-49
2023/06/14 11:22:09;;;;;;;0.50;0.20;;;;;;;24.91;38.44;100084.59;5033767;28;20479;-50
2023/06/14 11:24:35;;;;;;;0.50;0.20;;;;;;;24.78;37.80;100084.84;5033384;28;20464;-48
2023/06/14 11:27:02;;;;;;;0.47;0.20;;;;;;;24.51;38.32;100088.19;5033509;28;20987;-50
2023/06/14 11:29:29;;;;;;;0.50;0.20;;;;;;;24.64;38.20;100081.66;5033122;28;21044;-49
2023/06/14 11:31:56;;;;;;;0.50;0.20;;;;;;;24.01;38.58;100087.25;5033399;28;20448;-49
2023/06/14 11:34:22;;;;;;;0.50;0.20;;;;;;;24.25;38.54;100092.34;5033151;28;20522;-49
2023/06/14 11:36:49;;;;;;;0.50;0.20;;;;;;;24.38;38.50;100100.31;5034510;28;20501;-50